createdAt,value
2023-01-10T00:02:15.740Z,100793.12
2023-01-10T00:04:44.532Z,100792.35
2023-01-10T00:07:13.230Z,100797.13
2023-01-10T00:09:42.020Z,100798.87
2023-01-10T00:12:29.096Z,100797.28
2023-01-10T00:14:57.958Z,100792.80
2023-01-10T00:17:26.784Z,100789.90
2023-01-10T00:19:55.567Z,100794.70
2023-01-10T00:22:26.048Z,100788.78
2023-01-10T00:24:54.822Z,100787.06
2023-01-10T00:27:23.732Z,100790.33
2023-01-10T00:29:52.814Z,100796.92
2023-01-10T00:32:22.515Z,100797.55
2023-01-10T00:34:51.306Z,100800.63
2023-01-10T00:37:20.134Z,100797.38
2023-01-10T00:39:48.929Z,100793.48
2023-01-10T00:43:00.891Z,100798.96
2023-01-10T00:45:29.674Z,100798.20
2023-01-10T00:47:58.356Z,100800.84
2023-01-10T00:50:27.151Z,100798.05
2023-01-10T00:52:55.886Z,100797.68
2023-01-10T00:55:24.613Z,100796.52
2023-01-10T00:57:53.388Z,100791.69
2023-01-10T01:00:22.210Z,100792.51
2023-01-10T01:02:52.041Z,100789.73
2023-01-10T01:05:21.731Z,100795.34
2023-01-10T01:07:52.759Z,100790.96
2023-01-10T01:10:27.589Z,100784.77
2023-01-10T01:13:16.516Z,100775.70
2023-01-10T01:15:46.019Z,100769.69
2023-01-10T01:18:21.118Z,100768.05
2023-01-10T01:20:55.365Z,100775.64
2023-01-10T01:23:24.737Z,100776.23
2023-01-10T01:25:54.748Z,100767.59
2023-01-10T01:28:24.312Z,100767.65
2023-01-10T01:30:53.264Z,100765.72
2023-01-10T01:33:22.071Z,100763.63
2023-01-10T01:35:50.973Z,100766.48
2023-01-10T01:38:19.770Z,100759.88
2023-01-10T01:40:48.590Z,100758.65
2023-01-10T01:43:25.817Z,100747.20
2023-01-10T01:45:56.175Z,100737.39
2023-01-10T01:48:35.239Z,100735.25
2023-01-10T01:51:20.940Z,100733.36
2023-01-10T01:53:54.886Z,100735.56
2023-01-10T01:56:31.518Z,100731.45
2023-01-10T01:59:21.008Z,100725.63
2023-01-10T02:01:55.854Z,100725.67
2023-01-10T02:04:49.308Z,100725.52
2023-01-10T02:07:18.579Z,100720.23
2023-01-10T02:09:59.125Z,100718.92
2023-01-10T02:12:30.446Z,100719.03
2023-01-10T02:15:00.067Z,100718.71
2023-01-10T02:17:28.840Z,100715.86
2023-01-10T02:20:03.495Z,100711.52
2023-01-10T02:23:00.233Z,100704.02
2023-01-10T02:25:40.964Z,100709.05
2023-01-10T02:29:00.231Z,100706.00
2023-01-10T02:32:08.856Z,100701.23
2023-01-10T02:35:15.660Z,100696.09
2023-01-10T02:38:18.190Z,100695.45
2023-01-10T02:41:02.470Z,100694.36
2023-01-10T02:43:40.181Z,100686.27
2023-01-10T02:46:28.615Z,100688.23
2023-01-10T02:48:57.878Z,100680.69
2023-01-10T02:51:30.509Z,100680.02
2023-01-10T02:54:29.334Z,100681.04
2023-01-10T02:57:15.341Z,100679.66
2023-01-10T03:00:17.502Z,100675.71
2023-01-10T03:03:27.962Z,100677.19
2023-01-10T03:06:36.361Z,100678.53
2023-01-10T03:09:21.644Z,100685.14
2023-01-10T03:12:02.475Z,100681.99
2023-01-10T03:14:33.452Z,100682.71
2023-01-10T03:17:09.086Z,100687.94
2023-01-10T03:20:01.430Z,100687.95
2023-01-10T03:22:35.411Z,100683.08
2023-01-10T03:25:07.378Z,100685.52
2023-01-10T03:27:55.966Z,100690.06
2023-01-10T03:30:40.126Z,100689.27
2023-01-10T03:33:10.165Z,100686.14
2023-01-10T03:36:10.231Z,100688.25
2023-01-10T03:39:24.091Z,100692.02
2023-01-10T03:43:12.473Z,100691.86
2023-01-10T03:45:59.534Z,100679.14
2023-01-10T03:48:34.345Z,100679.21
2023-01-10T03:51:06.803Z,100676.77
2023-01-10T03:53:38.509Z,100674.70
2023-01-10T03:56:08.015Z,100674.75
2023-01-10T03:58:36.717Z,100674.81
2023-01-10T04:01:05.713Z,100672.05
2023-01-10T04:03:34.610Z,100671.71
2023-01-10T04:06:04.648Z,100664.70
2023-01-10T04:08:33.440Z,100651.23
2023-01-10T04:11:02.307Z,100648.86
2023-01-10T04:13:31.019Z,100648.11
2023-01-10T04:16:01.040Z,100650.27
2023-01-10T04:18:29.894Z,100647.44
2023-01-10T04:20:58.635Z,100643.23
2023-01-10T04:23:27.373Z,100641.98
2023-01-10T04:25:56.129Z,100646.83
2023-01-10T04:28:24.931Z,100649.61
2023-01-10T04:30:53.753Z,100647.62
2023-01-10T04:33:22.643Z,100646.69
2023-01-10T04:35:52.766Z,100644.02
2023-01-10T04:38:21.874Z,100645.66
2023-01-10T04:40:56.625Z,100643.45
2023-01-10T04:43:26.286Z,100643.52
2023-01-10T04:45:55.210Z,100652.30
2023-01-10T04:48:24.021Z,100652.36
2023-01-10T04:50:54.235Z,100656.30
2023-01-10T04:53:23.249Z,100660.19
2023-01-10T04:55:51.960Z,100659.88
2023-01-10T04:58:20.753Z,100656.89
2023-01-10T05:00:49.454Z,100654.48
2023-01-10T05:03:20.470Z,100652.00
2023-01-10T05:05:49.288Z,100653.34
2023-01-10T05:08:18.112Z,100653.75
2023-01-10T05:10:46.828Z,100654.40
2023-01-10T05:13:15.581Z,100655.45
2023-01-10T05:15:44.371Z,100660.76
2023-01-10T05:18:13.087Z,100664.11
2023-01-10T05:20:41.782Z,100658.83
2023-01-10T05:23:10.542Z,100661.14
2023-01-10T05:25:39.294Z,100664.71
2023-01-10T05:28:08.071Z,100659.52
2023-01-10T05:30:37.748Z,100665.27
2023-01-10T05:33:06.503Z,100667.36
2023-01-10T05:35:35.412Z,100669.21
2023-01-10T05:38:04.463Z,100671.47
2023-01-10T05:40:33.331Z,100674.91
2023-01-10T05:43:02.112Z,100671.52
2023-01-10T05:45:30.973Z,100678.23
2023-01-10T05:47:59.739Z,100676.81
2023-01-10T05:50:28.461Z,100672.23
2023-01-10T05:53:06.049Z,100672.88
2023-01-10T05:55:34.900Z,100671.23
2023-01-10T05:58:04.250Z,100673.13
2023-01-10T06:00:32.984Z,100672.87
2023-01-10T06:03:01.876Z,100672.81
2023-01-10T06:05:30.630Z,100675.18
2023-01-10T06:07:59.567Z,100679.42
2023-01-10T06:10:28.651Z,100679.77
2023-01-10T06:12:57.449Z,100679.59
2023-01-10T06:15:26.804Z,100682.42
2023-01-10T06:17:55.476Z,100685.65
2023-01-10T06:20:24.381Z,100683.63
2023-01-10T06:22:53.200Z,100691.50
2023-01-10T06:25:22.047Z,100690.52
2023-01-10T06:27:50.847Z,100693.14
2023-01-10T06:30:19.847Z,100690.20
2023-01-10T06:32:48.715Z,100693.08
2023-01-10T06:35:18.338Z,100692.95
2023-01-10T06:37:47.178Z,100691.52
2023-01-10T06:40:16.411Z,100692.45
2023-01-10T06:42:45.211Z,100688.25
2023-01-10T06:45:13.898Z,100690.13
2023-01-10T06:47:42.883Z,100688.27
2023-01-10T06:50:13.373Z,100687.98
2023-01-10T06:52:42.261Z,100688.03
2023-01-10T06:55:11.179Z,100695.31
2023-01-10T06:57:40.035Z,100694.23
2023-01-10T07:00:12.093Z,100699.07
2023-01-10T07:02:40.819Z,100702.23
2023-01-10T07:05:11.457Z,100705.02
2023-01-10T07:07:40.484Z,100700.45
2023-01-10T07:10:10.330Z,100704.80
2023-01-10T07:12:39.284Z,100699.95
2023-01-10T07:15:09.078Z,100699.81
2023-01-10T07:17:37.760Z,100700.48
2023-01-10T07:20:07.369Z,100706.45
2023-01-10T07:22:36.179Z,100707.45
2023-01-10T07:25:06.472Z,100709.20
2023-01-10T07:27:36.211Z,100706.67
2023-01-10T07:30:05.761Z,100703.20
2023-01-10T07:32:34.983Z,100703.43
2023-01-10T07:35:04.143Z,100702.21
2023-01-10T07:37:32.973Z,100701.75
2023-01-10T07:40:01.750Z,100698.52
2023-01-10T07:42:30.506Z,100694.19
2023-01-10T07:44:59.185Z,100683.49
2023-01-10T07:47:28.693Z,100687.90
2023-01-10T07:49:57.420Z,100685.20
2023-01-10T07:52:26.238Z,100690.70
2023-01-10T07:54:55.092Z,100690.12
2023-01-10T07:57:23.920Z,100691.11
2023-01-10T07:59:52.637Z,100689.22
2023-01-10T08:02:21.663Z,100691.59
2023-01-10T08:04:50.532Z,100698.19
2023-01-10T08:07:19.269Z,100693.14
2023-01-10T08:09:48.097Z,100693.33
2023-01-10T08:12:16.906Z,100692.17
2023-01-10T08:14:45.839Z,100689.15
2023-01-10T08:17:14.645Z,100693.14
2023-01-10T08:19:44.759Z,100692.71
2023-01-10T08:22:13.644Z,100690.84
2023-01-10T08:24:42.369Z,100694.91
2023-01-10T08:27:11.122Z,100697.37
2023-01-10T08:29:39.810Z,100700.83
2023-01-10T08:32:09.099Z,100700.05
2023-01-10T08:34:38.093Z,100708.41
2023-01-10T08:37:06.951Z,100707.77
2023-01-10T08:39:35.967Z,100711.58
2023-01-10T08:42:04.889Z,100713.95
2023-01-10T08:44:33.613Z,100712.88
2023-01-10T08:47:02.679Z,100716.89
2023-01-10T08:49:31.428Z,100723.36
2023-01-10T08:52:02.816Z,100723.83
2023-01-10T08:54:31.582Z,100724.52
2023-01-10T08:57:00.434Z,100729.17
2023-01-10T08:59:29.492Z,100734.83
2023-01-10T09:02:00.018Z,100728.85
2023-01-10T09:04:32.790Z,100727.16
2023-01-10T09:07:01.777Z,100724.64
2023-01-10T09:09:30.655Z,100720.58
2023-01-10T09:11:59.431Z,100719.72
2023-01-10T09:14:28.242Z,100717.30
2023-01-10T09:16:57.017Z,100710.85
2023-01-10T09:19:25.736Z,100710.92
2023-01-10T09:21:54.493Z,100714.98
2023-01-10T09:24:23.575Z,100713.47
2023-01-10T09:26:53.037Z,100714.29
2023-01-10T09:29:21.984Z,100711.90
2023-01-10T09:31:50.755Z,100710.70
2023-01-10T09:34:19.500Z,100709.66
2023-01-10T09:36:48.622Z,100707.69
2023-01-10T09:39:17.358Z,100703.52
2023-01-10T09:42:04.112Z,100701.61
2023-01-10T09:44:50.939Z,100694.11
2023-01-10T09:47:55.291Z,100696.30
2023-01-10T09:50:41.982Z,100698.86
2023-01-10T09:53:19.844Z,100701.73
2023-01-10T09:55:58.270Z,100692.91
2023-01-10T09:58:32.281Z,100691.98
2023-01-10T10:01:07.842Z,100690.79
2023-01-10T10:04:13.325Z,100688.84
2023-01-10T10:06:42.174Z,100687.66
2023-01-10T10:09:17.569Z,100692.34
2023-01-10T10:12:43.844Z,100696.63
2023-01-10T10:15:15.595Z,100703.23
2023-01-10T10:18:18.217Z,100706.77
2023-01-10T10:21:19.245Z,100704.02
2023-01-10T10:23:58.100Z,100707.80
2023-01-10T10:27:01.687Z,100711.54
2023-01-10T10:29:43.120Z,100718.67
2023-01-10T10:32:36.416Z,100712.64
2023-01-10T10:35:15.679Z,100705.91
2023-01-10T10:37:53.481Z,100698.35
2023-01-10T10:40:28.374Z,100700.94
2023-01-10T10:43:05.545Z,100696.90
2023-01-10T10:45:42.121Z,100702.04
2023-01-10T10:48:24.249Z,100707.02
2023-01-10T10:51:05.005Z,100707.45
2023-01-10T10:53:35.079Z,100708.84
2023-01-10T10:56:07.527Z,100703.61
2023-01-10T10:58:37.890Z,100700.90
2023-01-10T11:01:06.939Z,100704.25
2023-01-10T11:03:50.203Z,100698.61
2023-01-10T11:06:20.505Z,100699.42
2023-01-10T11:08:53.750Z,100701.23
2023-01-10T11:11:29.009Z,100703.54
2023-01-10T11:14:05.315Z,100705.23
2023-01-10T11:16:40.164Z,100705.83
2023-01-10T11:19:26.741Z,100709.78
2023-01-10T11:22:03.736Z,100709.38
2023-01-10T11:24:43.599Z,100708.73
2023-01-10T11:27:21.795Z,100709.95
2023-01-10T11:30:03.804Z,100702.46
2023-01-10T11:32:40.652Z,100696.77
2023-01-10T11:35:25.371Z,100698.23
2023-01-10T11:38:24.984Z,100691.17
2023-01-10T11:41:02.593Z,100688.47
2023-01-10T11:43:40.783Z,100680.98
2023-01-10T11:46:26.321Z,100684.67
2023-01-10T11:49:11.147Z,100688.08
2023-01-10T11:51:46.627Z,100689.98
2023-01-10T11:54:23.876Z,100689.46
2023-01-10T11:57:16.809Z,100689.29
2023-01-10T12:00:04.275Z,100685.19
2023-01-10T12:02:46.395Z,100686.70
2023-01-10T12:05:23.723Z,100691.00
2023-01-10T12:08:10.790Z,100692.56
2023-01-10T12:10:39.635Z,100695.07
2023-01-10T12:13:17.163Z,100696.27
2023-01-10T12:15:47.246Z,100694.81
2023-01-10T12:18:17.992Z,100694.77
2023-01-10T12:20:53.326Z,100696.91
2023-01-10T12:23:26.075Z,100694.66
2023-01-10T12:26:10.666Z,100699.98
2023-01-10T12:28:54.432Z,100704.58
2023-01-10T12:31:24.348Z,100709.90
2023-01-10T12:34:03.635Z,100712.67
2023-01-10T12:36:50.226Z,100711.73
2023-01-10T12:39:27.400Z,100715.17
2023-01-10T12:42:26.440Z,100713.40
2023-01-10T12:45:13.944Z,100720.89
2023-01-10T12:47:57.565Z,100720.90
2023-01-10T12:50:35.905Z,100724.75
2023-01-10T12:53:29.206Z,100726.23
2023-01-10T12:56:04.584Z,100730.47
2023-01-10T12:58:58.276Z,100732.74
2023-01-10T13:01:36.816Z,100736.44
2023-01-10T13:04:18.202Z,100737.36
2023-01-10T13:06:47.514Z,100738.05
2023-01-10T13:09:31.518Z,100732.05
2023-01-10T13:12:17.458Z,100734.07
2023-01-10T13:15:02.409Z,100735.77
2023-01-10T13:17:34.130Z,100742.55
2023-01-10T13:20:40.763Z,100747.60
2023-01-10T13:23:30.431Z,100747.14
2023-01-10T13:26:09.487Z,100745.75
2023-01-10T13:28:41.937Z,100754.92
2023-01-10T13:31:44.630Z,100753.85
2023-01-10T13:34:16.563Z,100757.27
2023-01-10T13:37:11.725Z,100760.48
2023-01-10T13:39:49.223Z,100766.98
2023-01-10T13:43:01.461Z,100769.77
2023-01-10T13:45:31.747Z,100774.41
2023-01-10T13:48:03.554Z,100775.38
2023-01-10T13:50:38.730Z,100781.27
2023-01-10T13:53:08.742Z,100779.15
2023-01-10T13:55:42.688Z,100781.33
2023-01-10T13:58:14.402Z,100781.06
2023-01-10T14:01:11.090Z,100779.71
2023-01-10T14:03:52.524Z,100777.87
2023-01-10T14:06:30.603Z,100781.58
2023-01-10T14:09:25.766Z,100787.08
2023-01-10T14:12:05.716Z,100787.30
2023-01-10T14:14:41.741Z,100791.37
2023-01-10T14:17:19.659Z,100794.64
2023-01-10T14:20:16.265Z,100789.61
2023-01-10T14:23:15.966Z,100788.13
2023-01-10T14:25:46.427Z,100796.78
2023-01-10T14:28:27.096Z,100797.11
2023-01-10T14:31:19.869Z,100796.73
2023-01-10T14:33:49.742Z,100798.32
2023-01-10T14:36:31.672Z,100798.76
2023-01-10T14:39:06.040Z,100802.29
2023-01-10T14:41:43.622Z,100804.25
2023-01-10T14:44:54.042Z,100809.62
2023-01-10T14:47:35.741Z,100815.24
2023-01-10T14:50:06.022Z,100816.45
2023-01-10T14:52:34.986Z,100811.47
2023-01-10T14:55:16.610Z,100806.31
2023-01-10T14:57:58.682Z,100803.89
2023-01-10T15:00:34.643Z,100801.38
2023-01-10T15:03:04.611Z,100798.08
2023-01-10T15:05:46.914Z,100800.88
2023-01-10T15:08:22.937Z,100800.92
2023-01-10T15:10:57.203Z,100799.36
2023-01-10T15:13:28.535Z,100807.08
2023-01-10T15:15:59.064Z,100812.14
2023-01-10T15:18:43.500Z,100817.41
2023-01-10T15:21:14.965Z,100819.02
2023-01-10T15:23:46.598Z,100817.27
2023-01-10T15:26:27.401Z,100823.11
2023-01-10T15:29:24.028Z,100822.64
2023-01-10T15:31:55.777Z,100826.06
2023-01-10T15:34:30.009Z,100832.04
2023-01-10T15:37:02.084Z,100832.21
2023-01-10T15:39:35.930Z,100833.23
2023-01-10T15:42:12.391Z,100835.47
2023-01-10T15:44:55.558Z,100843.45
2023-01-10T15:47:51.318Z,100848.24
2023-01-10T15:50:39.171Z,100846.59
2023-01-10T15:53:11.461Z,100848.05
2023-01-10T15:55:51.244Z,100851.98
2023-01-10T15:58:28.540Z,100852.50
2023-01-10T16:00:59.985Z,100859.33
2023-01-10T16:03:34.020Z,100857.40
2023-01-10T16:06:09.101Z,100856.06
2023-01-10T16:08:39.213Z,100859.09
2023-01-10T16:11:42.032Z,100865.50
2023-01-10T16:14:12.997Z,100867.89
2023-01-10T16:16:41.917Z,100866.48
2023-01-10T16:19:12.271Z,100870.98
2023-01-10T16:21:46.370Z,100870.77
2023-01-10T16:24:23.450Z,100877.55
2023-01-10T16:26:52.688Z,100877.04
2023-01-10T16:29:22.786Z,100876.45
2023-01-10T16:31:54.593Z,100879.31
2023-01-10T16:34:24.571Z,100881.24
2023-01-10T16:36:53.911Z,100886.42
2023-01-10T16:39:24.165Z,100890.85
2023-01-10T16:42:11.165Z,100895.84
2023-01-10T16:44:41.813Z,100903.50
2023-01-10T16:47:10.463Z,100904.28
2023-01-10T16:49:39.404Z,100906.71
2023-01-10T16:52:14.495Z,100909.20
2023-01-10T16:54:43.275Z,100907.82
2023-01-10T16:57:13.213Z,100910.50
2023-01-10T16:59:41.962Z,100915.95
2023-01-10T17:02:19.422Z,100920.47
2023-01-10T17:04:49.133Z,100922.11
2023-01-10T17:07:18.046Z,100923.68
2023-01-10T17:09:48.413Z,100920.20
2023-01-10T17:12:20.107Z,100927.18
2023-01-10T17:14:49.002Z,100933.16
2023-01-10T17:17:18.030Z,100935.60
2023-01-10T17:19:47.873Z,100936.02
2023-01-10T17:22:16.819Z,100938.66
2023-01-10T17:24:45.681Z,100941.60
2023-01-10T17:27:14.737Z,100941.02
2023-01-10T17:29:43.586Z,100941.80
2023-01-10T17:32:13.092Z,100942.58
2023-01-10T17:34:42.340Z,100944.30
2023-01-10T17:37:12.090Z,100951.95
2023-01-10T17:39:40.981Z,100957.77
2023-01-10T17:42:09.845Z,100956.35
2023-01-10T17:44:38.643Z,100958.03
2023-01-10T17:47:07.427Z,100956.86
2023-01-10T17:49:36.664Z,100958.21
2023-01-10T17:52:05.480Z,100959.83
2023-01-10T17:54:35.402Z,100959.39
2023-01-10T17:57:05.995Z,100961.35
2023-01-10T17:59:35.028Z,100965.08
2023-01-10T18:02:04.043Z,100969.68
2023-01-10T18:04:33.035Z,100974.34
2023-01-10T18:07:02.341Z,100976.07
2023-01-10T18:09:31.184Z,100977.08
2023-01-10T18:11:59.973Z,100979.66
2023-01-10T18:14:38.119Z,100986.18
2023-01-10T18:17:12.562Z,100988.69
2023-01-10T18:19:41.705Z,100987.69
2023-01-10T18:22:30.070Z,100995.94
2023-01-10T18:24:59.467Z,101000.13
2023-01-10T18:27:28.535Z,101002.38
2023-01-10T18:29:57.808Z,101007.54
2023-01-10T18:32:26.652Z,101009.84
2023-01-10T18:34:55.465Z,101007.41
2023-01-10T18:37:24.296Z,101016.29
2023-01-10T18:39:53.175Z,101016.94
2023-01-10T18:42:22.207Z,101019.34
2023-01-10T18:44:51.514Z,101017.19
2023-01-10T18:47:20.491Z,101031.89
2023-01-10T18:49:49.947Z,101031.46
2023-01-10T18:52:21.202Z,101026.81
2023-01-10T18:54:52.333Z,101025.50
2023-01-10T18:57:22.056Z,101023.22
2023-01-10T18:59:50.926Z,101025.09
2023-01-10T19:02:20.610Z,101025.08
2023-01-10T19:04:49.549Z,101035.95
2023-01-10T19:07:25.097Z,101036.23
2023-01-10T19:09:54.628Z,101042.65
2023-01-10T19:12:24.183Z,101045.30
2023-01-10T19:14:53.625Z,101053.02
2023-01-10T19:17:25.299Z,101061.18
2023-01-10T19:19:55.037Z,101060.86
2023-01-10T19:22:23.754Z,101064.64
2023-01-10T19:24:53.398Z,101067.28
2023-01-10T19:27:22.245Z,101071.17
2023-01-10T19:29:51.619Z,101078.42
2023-01-10T19:32:20.259Z,101082.04
2023-01-10T19:34:49.854Z,101085.92
2023-01-10T19:37:19.338Z,101087.02
2023-01-10T19:39:48.897Z,101094.67
2023-01-10T19:42:17.670Z,101098.78
2023-01-10T19:44:47.139Z,101101.27
2023-01-10T19:47:16.010Z,101102.03
2023-01-10T19:49:45.644Z,101094.27
2023-01-10T19:52:15.214Z,101097.35
2023-01-10T19:54:44.773Z,101094.77
2023-01-10T19:57:13.535Z,101094.98
2023-01-10T19:59:51.955Z,101096.67
2023-01-10T20:02:20.779Z,101106.95
2023-01-10T20:04:49.700Z,101109.59
2023-01-10T20:07:18.839Z,101115.23
2023-01-10T20:09:51.366Z,101124.98
2023-01-10T20:12:20.228Z,101123.64
2023-01-10T20:14:52.034Z,101127.94
2023-01-10T20:17:21.091Z,101131.58
2023-01-10T20:19:49.908Z,101140.08
2023-01-10T20:22:18.685Z,101145.72
2023-01-10T20:24:47.563Z,101148.42
2023-01-10T20:27:16.434Z,101153.61
2023-01-10T20:29:45.967Z,101159.38
2023-01-10T20:32:17.463Z,101158.56
2023-01-10T20:34:47.587Z,101162.58
2023-01-10T20:37:16.503Z,101165.51
2023-01-10T20:39:46.595Z,101173.61
2023-01-10T20:42:15.331Z,101176.79
2023-01-10T20:44:44.106Z,101183.23
2023-01-10T20:47:12.964Z,101188.10
2023-01-10T20:49:41.727Z,101193.73
2023-01-10T20:52:10.550Z,101199.45
2023-01-10T20:54:39.292Z,101199.84
2023-01-10T20:57:08.081Z,101199.45
2023-01-10T20:59:36.799Z,101201.17
2023-01-10T21:02:05.700Z,101205.48
2023-01-10T21:04:34.545Z,101213.98
2023-01-10T21:07:03.788Z,101219.48
2023-01-10T21:09:32.677Z,101227.57
2023-01-10T21:12:17.409Z,101225.05
2023-01-10T21:14:50.736Z,101220.31
2023-01-10T21:17:19.845Z,101224.23
2023-01-10T21:19:48.629Z,101213.01
2023-01-10T21:22:17.432Z,101214.55
2023-01-10T21:24:49.997Z,101221.29
2023-01-10T21:27:18.902Z,101234.61
2023-01-10T21:29:47.810Z,101245.70
2023-01-10T21:32:16.637Z,101249.20
2023-01-10T21:34:45.443Z,101256.39
2023-01-10T21:37:14.667Z,101256.64
2023-01-10T21:39:43.557Z,101262.94
2023-01-10T21:42:30.832Z,101263.81
2023-01-10T21:45:03.832Z,101260.48
2023-01-10T21:47:34.444Z,101262.31
2023-01-10T21:50:04.984Z,101255.67
2023-01-10T21:52:33.772Z,101256.86
2023-01-10T21:55:06.029Z,101249.86
2023-01-10T21:57:34.967Z,101246.42
2023-01-10T22:00:04.304Z,101245.77
2023-01-10T22:02:42.559Z,101239.73
2023-01-10T22:05:11.840Z,101237.67
2023-01-10T22:07:41.132Z,101243.64
2023-01-10T22:10:10.640Z,101246.10
2023-01-10T22:12:39.398Z,101238.73
2023-01-10T22:15:09.102Z,101240.30
2023-01-10T22:17:37.911Z,101249.47
2023-01-10T22:20:07.737Z,101250.64
2023-01-10T22:22:38.167Z,101257.83
2023-01-10T22:25:07.934Z,101262.50
2023-01-10T22:27:36.827Z,101266.17
2023-01-10T22:30:06.600Z,101274.54
2023-01-10T22:32:35.960Z,101279.48
2023-01-10T22:35:04.955Z,101282.15
2023-01-10T22:37:33.763Z,101280.58
2023-01-10T22:40:02.453Z,101278.08
2023-01-10T22:42:31.319Z,101285.50
2023-01-10T22:45:00.180Z,101295.70
2023-01-10T22:47:29.069Z,101307.51
2023-01-10T22:49:57.830Z,101313.20
2023-01-10T22:52:26.569Z,101320.81
2023-01-10T22:54:55.389Z,101332.08
2023-01-10T22:57:24.190Z,101332.23
2023-01-10T22:59:52.972Z,101334.50
2023-01-10T23:02:21.794Z,101341.63
2023-01-10T23:04:50.566Z,101350.36
2023-01-10T23:07:19.313Z,101351.09
2023-01-10T23:09:48.046Z,101355.63
2023-01-10T23:12:17.283Z,101356.38
2023-01-10T23:14:45.931Z,101365.64
2023-01-10T23:17:14.583Z,101370.84
2023-01-10T23:19:43.329Z,101369.95
2023-01-10T23:22:12.031Z,101377.74
2023-01-10T23:24:40.689Z,101378.34
2023-01-10T23:27:09.437Z,101376.81
2023-01-10T23:29:38.160Z,101383.19
2023-01-10T23:32:07.102Z,101386.84
2023-01-10T23:34:36.876Z,101386.59
2023-01-10T23:37:05.644Z,101386.89
2023-01-10T23:39:34.467Z,101389.42
2023-01-10T23:42:03.243Z,101397.77
2023-01-10T23:44:32.078Z,101402.41
2023-01-10T23:47:01.038Z,101407.19
2023-01-10T23:49:29.954Z,101413.48
2023-01-10T23:51:58.655Z,101417.65
2023-01-10T23:54:27.460Z,101421.66
2023-01-10T23:56:56.172Z,101426.02
2023-01-10T23:59:24.959Z,101428.23
